Time;durP1;ratioP1;P1;durP2;ratioP2;P2;SDS_P1;SDS_P2;PMS_P1;PMS_P2;Temp;Humidity;BMP_temperature;BMP_pressure;BME280_temperature;BME280_humidity;BME280_pressure;Samples;Min_cycle;Max_cycle;Signal;HPM_P1;HPM_P2
2022/03/21 00:00:17;;;;;;;25.48;13.85;;;;;;;4.46;56.07;97821.03;2066324;28;20281;-65
2022/03/21 00:01:20;;;;;;;27.40;13.80;;;;;;;4.46;56.11;97826.22;2066272;28;20205;-64
2022/03/21 00:02:22;;;;;;;22.75;13.90;;;;;;;4.45;56.27;97821.94;2069167;28;20209;-65
2022/03/21 00:03:25;;;;;;;22.38;13.68;;;;;;;4.34;56.44;97827.38;2066387;28;20229;-65
2022/03/21 00:04:27;;;;;;;21.08;12.45;;;;;;;4.44;56.17;97822.00;2067843;28;20233;-65
2022/03/21 00:05:31;;;;;;;28.67;14.68;;;;;;;4.39;56.23;97824.69;2066235;28;20252;-65
2022/03/21 00:06:33;;;;;;;26.42;13.27;;;;;;;4.46;55.79;97827.97;2069563;28;20201;-65
2022/03/21 00:07:35;;;;;;;21.95;13.02;;;;;;;4.50;55.76;97827.03;2068619;28;20769;-65
2022/03/21 00:08:36;;;;;;;23.52;12.57;;;;;;;4.52;55.95;97830.44;2069265;28;20586;-64
2022/03/21 00:09:38;;;;;;;21.42;13.32;;;;;;;4.47;56.10;97822.78;2070711;28;20642;-65
2022/03/21 00:10:40;;;;;;;26.27;12.98;;;;;;;4.48;55.47;97827.06;2071832;28;20225;-65
2022/03/21 00:11:41;;;;;;;29.45;12.70;;;;;;;4.54;55.33;97826.88;2068253;28;20198;-65
2022/03/21 00:12:43;;;;;;;23.88;13.32;;;;;;;4.66;53.86;97828.31;2068854;28;20198;-64
2022/03/21 00:13:44;;;;;;;24.83;12.18;;;;;;;4.72;54.04;97823.00;2070315;28;20199;-65
2022/03/21 00:14:46;;;;;;;21.67;12.82;;;;;;;4.63;53.80;97815.44;2068951;28;20237;-65
2022/03/21 00:15:50;;;;;;;26.50;12.73;;;;;;;4.73;53.94;97824.69;2068632;28;20586;-64
2022/03/21 00:16:52;;;;;;;20.92;12.55;;;;;;;4.74;53.58;97823.81;2069983;28;20252;-65
2022/03/21 00:17:54;;;;;;;24.45;13.65;;;;;;;4.70;54.10;97824.75;2068412;28;20198;-64
2022/03/21 00:18:56;;;;;;;25.40;12.75;;;;;;;4.62;54.62;97831.88;2069811;28;20201;-64
2022/03/21 00:19:57;;;;;;;28.27;12.77;;;;;;;4.59;54.53;97829.38;2071737;28;20198;-64
2022/03/21 00:20:58;;;;;;;19.92;11.05;;;;;;;4.58;54.30;97835.47;2070720;28;20234;-64
2022/03/21 00:22:01;;;;;;;24.88;12.98;;;;;;;4.70;54.38;97826.50;2068977;28;20210;-64
2022/03/21 00:23:02;;;;;;;17.38;11.27;;;;;;;4.66;54.23;97830.06;2070233;28;20198;-64
2022/03/21 00:24:04;;;;;;;25.85;13.60;;;;;;;4.70;54.15;97829.94;2069704;28;20198;-65
2022/03/21 00:25:06;;;;;;;19.42;11.48;;;;;;;4.66;54.08;97830.06;2068226;28;20212;-64
2022/03/21 00:26:08;;;;;;;21.70;11.77;;;;;;;4.78;53.34;97821.13;2069351;28;20245;-64
2022/03/21 00:27:12;;;;;;;19.95;11.35;;;;;;;4.87;52.77;97823.47;2069877;28;20198;-64
2022/03/21 00:28:14;;;;;;;22.25;12.00;;;;;;;5.01;52.17;97831.75;2071942;28;20224;-64
2022/03/21 00:29:15;;;;;;;20.92;11.48;;;;;;;5.11;51.99;97829.75;2068324;28;20310;-65
2022/03/21 00:30:17;;;;;;;24.73;12.55;;;;;;;5.14;51.73;97827.94;2070512;28;20217;-64
2022/03/21 00:31:18;;;;;;;26.40;11.85;;;;;;;5.47;50.64;97832.19;2068025;28;20221;-65
2022/03/21 00:32:20;;;;;;;24.85;12.02;;;;;;;5.51;50.56;97826.06;2069115;28;20766;-65
2022/03/21 00:33:22;;;;;;;21.17;11.50;;;;;;;5.47;50.86;97819.22;2067617;28;20193;-64
2022/03/21 00:34:23;;;;;;;18.95;11.50;;;;;;;5.42;50.84;97829.75;2069904;28;20218;-64
2022/03/21 00:35:26;;;;;;;21.05;11.48;;;;;;;5.31;51.33;97824.00;2068362;28;20213;-64
2022/03/21 00:36:28;;;;;;;21.75;11.88;;;;;;;5.30;51.21;97825.75;2068339;28;20199;-64
2022/03/21 00:37:48;;;;;;;24.48;12.80;;;;;;;5.22;51.59;97827.72;2066400;28;20252;-64
2022/03/21 00:38:50;;;;;;;19.70;11.57;;;;;;;5.11;52.04;97824.56;2066581;28;20591;-64
2022/03/21 00:39:51;;;;;;;19.85;10.50;;;;;;;5.12;51.94;97821.94;2069375;28;20228;-65
2022/03/21 00:40:53;;;;;;;19.17;11.57;;;;;;;5.32;51.25;97823.97;2069575;28;20689;-64
2022/03/21 00:41:55;;;;;;;20.55;10.70;;;;;;;5.31;51.38;97830.06;2070291;28;20230;-64
2022/03/21 00:42:57;;;;;;;21.60;12.73;;;;;;;5.16;52.45;97827.91;2069924;28;20202;-64
2022/03/21 00:43:59;;;;;;;20.52;12.23;;;;;;;4.87;53.08;97831.28;2069262;28;20205;-65
2022/03/21 00:45:02;;;;;;;21.02;11.65;;;;;;;4.70;53.58;97826.50;2069345;28;20194;-64
2022/03/21 00:46:04;;;;;;;22.27;12.32;;;;;;;4.78;52.98;97831.50;2069902;28;20356;-65
2022/03/21 00:47:06;;;;;;;25.20;13.93;;;;;;;4.69;53.99;97830.84;2070067;28;20205;-64
2022/03/21 00:48:07;;;;;;;21.33;12.38;;;;;;;4.63;54.34;97832.75;2068349;28;20197;-64
2022/03/21 00:49:12;;;;;;;26.48;12.85;;;;;;;4.67;54.24;97829.19;2068539;28;20203;-65
2022/03/21 00:50:16;;;;;;;20.58;11.68;;;;;;;4.68;53.99;97829.13;2067752;28;20757;-64
2022/03/21 00:51:17;;;;;;;25.23;13.27;;;;;;;4.64;54.37;97829.25;2070121;28;20213;-65
2022/03/21 00:52:20;;;;;;;21.60;13.07;;;;;;;4.52;55.41;97831.25;2068941;28;20201;-64
2022/03/21 00:53:22;;;;;;;24.15;13.30;;;;;;;4.39;56.48;97832.50;2069360;28;20202;-65
2022/03/21 00:54:23;;;;;;;22.55;12.77;;;;;;;4.27;57.35;97837.94;2069734;28;20190;-64
2022/03/21 00:55:28;;;;;;;21.98;13.05;;;;;;;4.05;58.50;97835.00;2069121;28;20202;-65
2022/03/21 00:56:30;;;;;;;22.02;12.75;;;;;;;3.89;59.19;97835.34;2067884;28;20206;-64
2022/03/21 00:57:32;;;;;;;25.65;13.20;;;;;;;3.88;59.26;97836.25;2067611;28;20205;-65
2022/03/21 00:58:34;;;;;;;24.90;11.65;;;;;;;3.74;59.54;97833.09;2067193;28;20214;-65
2022/03/21 00:59:35;;;;;;;23.65;13.95;;;;;;;3.73;59.50;97837.44;2066575;28;20217;-64
2022/03/21 01:00:36;;;;;;;27.50;13.15;;;;;;;3.77;59.16;97840.81;2068297;28;20229;-64
2022/03/21 01:01:38;;;;;;;20.98;12.80;;;;;;;3.79;59.15;97835.59;2069925;28;20871;-64
2022/03/21 01:02:41;;;;;;;28.42;13.63;;;;;;;3.82;58.73;97836.38;2070616;28;20234;-65
2022/03/21 01:03:42;;;;;;;22.95;12.77;;;;;;;3.69;59.09;97833.22;2068647;28;20633;-65
2022/03/21 01:04:44;;;;;;;25.58;12.55;;;;;;;3.74;58.73;97839.16;2069512;28;20205;-65
2022/03/21 01:05:45;;;;;;;24.27;13.90;;;;;;;3.81;58.44;97836.44;2068698;28;20330;-64
2022/03/21 01:06:47;;;;;;;28.98;14.55;;;;;;;3.96;56.43;97830.91;2068846;28;20647;-65
2022/03/21 01:07:50;;;;;;;24.75;12.23;;;;;;;4.07;56.05;97836.66;2066603;28;20198;-65
2022/03/21 01:08:52;;;;;;;22.65;12.27;;;;;;;4.09;56.49;97836.66;2068333;28;20660;-64
2022/03/21 01:09:53;;;;;;;22.92;12.27;;;;;;;4.00;56.96;97831.66;2069290;28;20208;-65
2022/03/21 01:10:55;;;;;;;23.20;13.10;;;;;;;4.00;56.87;97831.66;2069787;28;20229;-65
2022/03/21 01:11:57;;;;;;;22.15;12.52;;;;;;;3.96;57.19;97836.94;2068488;28;20218;-65
2022/03/21 01:12:58;;;;;;;23.10;12.27;;;;;;;4.00;57.20;97832.53;2069044;28;20198;-65
2022/03/21 01:14:00;;;;;;;26.77;12.32;;;;;;;3.94;57.30;97833.53;2065205;28;20198;-65
2022/03/21 01:15:03;;;;;;;18.90;11.80;;;;;;;3.94;57.32;97843.06;2067188;28;20702;-64
2022/03/21 01:16:04;;;;;;;22.58;13.48;;;;;;;3.97;57.28;97842.97;2066300;28;20229;-65
2022/03/21 01:17:06;;;;;;;23.58;12.68;;;;;;;4.01;57.19;97846.34;2068130;28;20210;-65
2022/03/21 01:18:08;;;;;;;23.33;13.38;;;;;;;4.01;57.09;97842.00;2068214;28;20296;-64
2022/03/21 01:19:10;;;;;;;21.15;12.80;;;;;;;3.97;57.35;97842.97;2067870;28;20202;-65
2022/03/21 01:20:17;;;;;;;21.88;12.15;;;;;;;3.90;57.67;97842.25;2069693;28;20199;-64
2022/03/21 01:21:18;;;;;;;21.73;13.95;;;;;;;3.71;58.38;97846.13;2066841;28;20241;-65
2022/03/21 01:22:20;;;;;;;26.33;13.45;;;;;;;3.65;58.66;97847.13;2067943;28;20237;-64
2022/03/21 01:23:21;;;;;;;21.33;12.23;;;;;;;3.69;58.50;97843.56;2068781;28;20191;-64
2022/03/21 01:24:23;;;;;;;24.60;14.02;;;;;;;3.72;58.88;97845.25;2068384;28;20517;-65
2022/03/21 01:25:25;;;;;;;24.35;13.20;;;;;;;3.58;58.98;97845.53;2069894;28;20202;-65
2022/03/21 01:26:26;;;;;;;21.85;13.05;;;;;;;3.60;58.96;97843.75;2069915;28;20193;-65
2022/03/21 01:27:29;;;;;;;22.73;12.60;;;;;;;3.61;59.04;97842.00;2068372;28;20871;-64
2022/03/21 01:28:31;;;;;;;22.60;13.85;;;;;;;3.61;58.91;97847.19;2067466;28;20225;-65
2022/03/21 01:29:33;;;;;;;20.33;11.88;;;;;;;3.69;58.64;97848.75;2068797;28;20210;-65
2022/03/21 01:30:36;;;;;;;21.33;12.27;;;;;;;3.62;58.81;97847.16;2069569;28;20260;-65
2022/03/21 01:31:38;;;;;;;21.85;13.13;;;;;;;3.54;59.28;97849.06;2068869;28;20218;-64
2022/03/21 01:32:42;;;;;;;23.02;14.15;;;;;;;3.55;59.47;97850.78;2067695;28;20709;-65
2022/03/21 01:33:44;;;;;;;23.10;12.60;;;;;;;3.63;59.13;97851.47;2068268;28;20556;-64
2022/03/21 01:34:45;;;;;;;24.05;13.63;;;;;;;3.65;59.08;97849.72;2069749;28;20637;-64
2022/03/21 01:35:46;;;;;;;25.23;13.75;;;;;;;3.64;59.27;97857.50;2067965;28;20880;-64
2022/03/21 01:36:48;;;;;;;23.38;13.80;;;;;;;3.52;59.91;97851.69;2069364;28;20206;-65
2022/03/21 01:37:50;;;;;;;21.88;12.70;;;;;;;3.38;60.30;97847.69;2068042;28;20211;-64
2022/03/21 01:38:51;;;;;;;22.60;14.10;;;;;;;3.39;60.08;97849.38;2068941;28;20206;-65
2022/03/21 01:39:53;;;;;;;25.77;14.65;;;;;;;3.18;61.35;97843.75;2066862;28;20523;-65
2022/03/21 01:40:54;;;;;;;23.52;13.30;;;;;;;3.20;61.76;97849.75;2065850;28;20235;-64
2022/03/21 01:41:56;;;;;;;29.50;14.27;;;;;;;3.08;61.92;97839.66;2068530;28;20198;-64
2022/03/21 01:42:57;;;;;;;29.30;14.65;;;;;;;3.19;61.54;97842.88;2065661;28;20573;-65
2022/03/21 01:44:06;;;;;;;25.05;13.73;;;;;;;3.28;61.25;97847.88;2067488;28;20195;-65
2022/03/21 01:45:07;;;;;;;23.17;13.80;;;;;;;3.22;61.12;97850.59;2066621;28;20198;-64
2022/03/21 01:46:09;;;;;;;22.77;13.30;;;;;;;3.18;61.08;97846.34;2067867;28;20227;-64
2022/03/21 01:47:10;;;;;;;19.20;12.90;;;;;;;3.19;61.02;97847.19;2069414;28;20669;-65
2022/03/21 01:48:12;;;;;;;23.55;13.35;;;;;;;3.16;60.91;97842.94;2067842;28;20217;-64
2022/03/21 01:49:14;;;;;;;31.33;14.43;;;;;;;3.21;60.65;97845.44;2067949;28;20197;-65
2022/03/21 01:50:16;;;;;;;22.63;13.75;;;;;;;3.14;60.65;97845.56;2068308;28;20213;-65
2022/03/21 01:51:17;;;;;;;27.00;13.73;;;;;;;3.17;60.55;97845.50;2069392;28;20199;-64
2022/03/21 01:52:20;;;;;;;23.92;13.20;;;;;;;3.05;61.15;97840.53;2067287;28;20214;-64
2022/03/21 01:56:03;;;;;;;22.02;12.73;;;;;;;2.91;62.01;97852.91;2066869;28;20229;-65
2022/03/21 01:57:05;;;;;;;26.55;13.52;;;;;;;2.85;62.38;97845.25;2069398;28;20665;-64
2022/03/21 01:58:06;;;;;;;28.95;15.80;;;;;;;2.80;62.70;97845.31;2069792;28;20205;-65
2022/03/21 01:59:08;;;;;;;26.65;14.95;;;;;;;2.89;62.46;97847.75;2070577;28;20202;-64
2022/03/21 02:00:11;;;;;;;24.65;15.10;;;;;;;2.79;62.80;97846.22;2070636;28;20204;-65
2022/03/21 02:01:13;;;;;;;25.95;14.45;;;;;;;2.47;63.59;97846.75;2068518;28;20208;-64
2022/03/21 02:02:15;;;;;;;24.77;14.73;;;;;;;2.52;63.69;97847.53;2071079;28;20202;-65
2022/03/21 02:03:21;;;;;;;22.85;14.60;;;;;;;2.54;63.77;97848.38;2067420;28;20198;-64
2022/03/21 02:04:23;;;;;;;30.58;15.00;;;;;;;2.58;63.87;97845.69;2066774;28;20237;-64
2022/03/21 02:05:27;;;;;;;24.88;15.18;;;;;;;2.53;64.02;97844.94;2069452;28;20216;-64
2022/03/21 02:06:29;;;;;;;25.05;14.98;;;;;;;2.44;64.54;97847.66;2066580;28;20753;-65
2022/03/21 02:07:30;;;;;;;28.48;15.77;;;;;;;2.38;64.75;97845.19;2069058;28;20228;-64
2022/03/21 02:08:32;;;;;;;27.77;15.20;;;;;;;2.41;64.89;97844.25;2068164;28;20508;-64
2022/03/21 02:09:34;;;;;;;31.20;15.30;;;;;;;2.39;64.92;97844.28;2068040;28;20194;-64
2022/03/21 02:10:36;;;;;;;29.10;16.08;;;;;;;2.36;65.07;97841.78;2067355;28;20229;-64
2022/03/21 02:11:38;;;;;;;26.08;13.82;;;;;;;2.30;65.34;97842.72;2066987;28;20664;-65
2022/03/21 02:12:40;;;;;;;27.33;15.18;;;;;;;2.33;65.38;97842.69;2068822;28;20198;-64
2022/03/21 02:13:42;;;;;;;31.70;15.43;;;;;;;2.33;65.34;97839.22;2068236;28;20209;-65
2022/03/21 02:14:44;;;;;;;28.05;15.88;;;;;;;2.44;65.07;97844.22;2070214;28;20712;-64
2022/03/21 02:15:46;;;;;;;30.15;13.98;;;;;;;2.51;64.69;97841.53;2068010;28;20595;-64
2022/03/21 02:16:47;;;;;;;26.10;15.25;;;;;;;2.43;64.93;97842.50;2068341;28;20190;-64
2022/03/21 02:17:59;;;;;;;28.45;15.00;;;;;;;2.29;65.44;97840.16;2068924;28;20664;-65
2022/03/21 02:19:21;;;;;;;29.42;16.33;;;;;;;2.14;66.15;97847.28;2068829;28;20360;-64
2022/03/21 02:20:23;;;;;;;30.92;16.48;;;;;;;2.11;66.10;97847.31;2065845;28;20654;-65
2022/03/21 02:21:44;;;;;;;25.13;15.18;;;;;;;2.11;66.46;97846.47;2068085;28;20558;-64
2022/03/21 02:23:20;;;;;;;28.92;15.27;;;;;;;2.07;66.38;97842.22;2069185;28;20201;-64
2022/03/21 02:24:27;;;;;;;33.85;15.48;;;;;;;2.05;66.37;97844.81;2069982;28;20197;-64
2022/03/21 02:25:34;;;;;;;25.55;14.73;;;;;;;2.04;66.38;97847.41;2068713;28;20229;-64
2022/03/21 02:26:36;;;;;;;32.33;14.13;;;;;;;2.00;66.26;97846.63;2066905;28;20201;-65
2022/03/21 02:27:39;;;;;;;24.45;14.45;;;;;;;2.03;66.29;97845.72;2068758;28;20190;-65
2022/03/21 02:28:42;;;;;;;34.15;15.35;;;;;;;2.10;65.98;97842.19;2068227;28;20195;-64
2022/03/21 02:29:48;;;;;;;26.92;15.10;;;;;;;2.10;66.15;97848.19;2067582;28;20201;-64
2022/03/21 02:30:50;;;;;;;23.30;14.02;;;;;;;2.17;65.97;97854.97;2067072;28;20232;-64
2022/03/21 02:31:57;;;;;;;27.73;15.43;;;;;;;2.14;66.33;97852.44;2069582;28;20202;-64
2022/03/21 02:33:00;;;;;;;30.92;15.57;;;;;;;2.13;66.17;97853.31;2070746;28;20205;-65
2022/03/21 02:34:02;;;;;;;27.88;16.55;;;;;;;2.05;66.57;97855.16;2068185;28;20545;-64
2022/03/21 02:35:04;;;;;;;28.50;15.55;;;;;;;2.15;66.10;97856.72;2068266;28;20205;-64
2022/03/21 02:36:07;;;;;;;27.80;15.43;;;;;;;2.10;66.04;97870.63;2067720;28;20221;-65
2022/03/21 02:37:14;;;;;;;31.95;16.13;;;;;;;2.04;66.69;97860.34;2067898;28;20194;-65
2022/03/21 02:38:19;;;;;;;26.70;14.10;;;;;;;2.06;66.27;97848.25;2067033;28;20209;-64
2022/03/21 02:39:21;;;;;;;32.63;16.00;;;;;;;2.06;66.65;97869.81;2063971;28;20195;-64
2022/03/21 02:40:24;;;;;;;30.02;15.10;;;;;;;2.12;66.48;97868.88;2068389;28;20213;-64
2022/03/21 02:41:27;;;;;;;29.55;15.73;;;;;;;2.23;66.18;97871.28;2070049;28;20832;-64
2022/03/21 02:42:28;;;;;;;28.25;15.68;;;;;;;2.25;65.79;97860.03;2068312;28;20656;-64
2022/03/21 02:43:30;;;;;;;27.33;15.57;;;;;;;2.30;65.74;97870.31;2069671;28;20210;-64
2022/03/21 02:44:33;;;;;;;28.90;15.82;;;;;;;2.31;65.47;97862.53;2070580;28;20704;-64
2022/03/21 02:45:35;;;;;;;26.33;13.27;;;;;;;2.30;65.50;97865.13;2067950;28;20597;-64
2022/03/21 02:46:37;;;;;;;29.33;14.10;;;;;;;2.32;65.33;97863.38;2068297;28;20194;-65
2022/03/21 02:47:39;;;;;;;24.67;13.70;;;;;;;2.35;65.11;97855.56;2068340;28;20203;-64
2022/03/21 02:48:40;;;;;;;23.55;12.82;;;;;;;2.26;65.56;97863.47;2067268;28;20198;-64
2022/03/21 02:49:42;;;;;;;23.48;13.80;;;;;;;2.17;65.66;97857.56;2067595;28;20613;-65
2022/03/21 02:50:59;;;;;;;26.38;14.05;;;;;;;2.24;65.74;97863.50;2063799;28;20229;-64
2022/03/21 02:52:04;;;;;;;28.70;14.35;;;;;;;2.27;65.51;97866.03;2064283;28;20201;-65
2022/03/21 02:53:08;;;;;;;23.08;13.07;;;;;;;2.30;64.90;97858.22;2065304;28;20210;-64
2022/03/21 02:54:11;;;;;;;24.55;14.60;;;;;;;2.36;64.76;97859.88;2066847;28;20229;-64
2022/03/21 02:55:12;;;;;;;23.50;13.23;;;;;;;2.29;65.26;97860.84;2066545;28;20524;-64
2022/03/21 02:56:14;;;;;;;28.27;14.10;;;;;;;2.25;65.01;97851.41;2066523;28;20195;-65
2022/03/21 02:57:15;;;;;;;25.27;14.80;;;;;;;2.22;65.43;97857.50;2068697;28;20201;-64
2022/03/21 02:58:17;;;;;;;27.02;14.13;;;;;;;2.13;65.50;97861.06;2066172;28;20204;-64
2022/03/21 02:59:18;;;;;;;23.58;14.15;;;;;;;2.14;65.61;97859.34;2066085;28;20704;-64
2022/03/21 03:00:20;;;;;;;25.95;13.80;;;;;;;2.25;65.07;97857.44;2068642;28;20210;-65
2022/03/21 03:01:21;;;;;;;30.75;13.95;;;;;;;2.27;64.47;97853.09;2067303;28;20221;-64
2022/03/21 03:02:23;;;;;;;27.42;13.05;;;;;;;2.41;64.09;97858.06;2067812;28;20230;-65
2022/03/21 03:03:25;;;;;;;23.50;13.25;;;;;;;2.47;64.10;97862.25;2069162;28;20210;-65
2022/03/21 03:04:27;;;;;;;23.63;13.88;;;;;;;2.43;64.21;97855.44;2068205;28;20527;-64
2022/03/21 03:05:28;;;;;;;23.50;13.05;;;;;;;2.41;64.19;97857.19;2067250;28;20240;-64
2022/03/21 03:06:30;;;;;;;31.25;14.27;;;;;;;2.37;64.34;97856.38;2069925;28;20203;-64
2022/03/21 03:07:31;;;;;;;23.92;14.07;;;;;;;2.39;63.96;97854.63;2069270;28;20216;-65
2022/03/21 03:08:35;;;;;;;26.05;13.90;;;;;;;2.48;63.59;97844.16;2068613;28;20201;-64
2022/03/21 03:09:36;;;;;;;26.95;13.55;;;;;;;2.58;63.58;97853.44;2065667;28;20716;-64
2022/03/21 03:10:38;;;;;;;24.58;12.80;;;;;;;2.62;63.51;97845.66;2066478;28;20221;-64
2022/03/21 03:11:39;;;;;;;22.50;12.82;;;;;;;2.61;63.17;97854.28;2068219;28;20193;-64
2022/03/21 03:12:41;;;;;;;26.13;13.30;;;;;;;2.68;63.12;97850.72;2066044;28;20214;-64
2022/03/21 03:13:42;;;;;;;23.95;14.18;;;;;;;2.75;63.05;97854.91;2066213;28;20194;-65
2022/03/21 03:14:44;;;;;;;25.05;13.00;;;;;;;2.66;63.17;97850.72;2067457;28;20237;-64
2022/03/21 03:15:47;;;;;;;22.88;14.18;;;;;;;2.54;64.31;97856.13;2066993;28;20225;-64
2022/03/21 03:16:49;;;;;;;24.10;14.02;;;;;;;2.51;64.41;97849.28;2067972;28;20191;-64
2022/03/21 03:17:50;;;;;;;26.77;14.70;;;;;;;2.40;64.82;97852.91;2068135;28;20233;-65
2022/03/21 03:18:52;;;;;;;29.50;14.30;;;;;;;2.30;65.63;97850.47;2067787;28;20202;-65
2022/03/21 03:19:54;;;;;;;23.30;13.98;;;;;;;2.11;66.00;97851.63;2069020;28;20194;-64
2022/03/21 03:20:58;;;;;;;32.10;15.27;;;;;;;2.15;65.99;97854.13;2067149;28;20229;-64
2022/03/21 03:21:59;;;;;;;22.48;14.00;;;;;;;2.04;66.41;97852.59;2069032;28;20260;-64
2022/03/21 03:23:03;;;;;;;22.65;13.73;;;;;;;1.99;66.64;97855.25;2066905;28;20202;-64
2022/03/21 03:24:05;;;;;;;25.10;13.85;;;;;;;1.94;66.99;97851.88;2069461;28;20194;-64
2022/03/21 03:25:07;;;;;;;21.70;12.80;;;;;;;1.90;67.35;97852.78;2069088;28;20194;-65
2022/03/21 03:26:09;;;;;;;28.35;14.80;;;;;;;1.88;67.50;97852.84;2067077;28;20218;-64
2022/03/21 03:27:11;;;;;;;20.58;13.20;;;;;;;1.88;67.35;97851.97;2067720;28;20663;-64
2022/03/21 03:28:13;;;;;;;24.58;13.93;;;;;;;1.78;67.39;97846.06;2067571;28;20208;-65
2022/03/21 03:29:34;;;;;;;26.15;13.45;;;;;;;1.75;67.31;97854.72;2068158;28;20222;-64
2022/03/21 03:30:36;;;;;;;25.92;13.90;;;;;;;1.97;66.70;97852.69;2066797;28;20226;-64
2022/03/21 03:31:39;;;;;;;21.52;12.93;;;;;;;1.93;66.23;97860.50;2068077;28;20201;-65
2022/03/21 03:32:41;;;;;;;23.48;14.63;;;;;;;1.82;66.73;97857.22;2067214;28;20206;-64
2022/03/21 03:33:45;;;;;;;28.55;14.65;;;;;;;1.81;67.02;97861.53;2069898;28;20194;-65
2022/03/21 03:34:46;;;;;;;22.92;12.57;;;;;;;1.69;67.20;97851.38;2065753;28;20647;-65
2022/03/21 03:35:50;;;;;;;28.15;14.63;;;;;;;1.67;67.46;97863.47;2066715;28;20278;-64
2022/03/21 03:36:52;;;;;;;25.73;14.55;;;;;;;1.70;67.51;97863.41;2060842;28;20222;-65
2022/03/21 03:37:54;;;;;;;24.30;14.88;;;;;;;1.69;67.44;97859.97;2058774;28;20206;-64
2022/03/21 03:38:55;;;;;;;25.17;13.68;;;;;;;1.77;67.28;97857.28;2067009;28;20630;-65
2022/03/21 03:39:57;;;;;;;22.77;12.18;;;;;;;1.75;67.29;97862.47;2066775;28;20209;-64
2022/03/21 03:40:58;;;;;;;22.70;13.40;;;;;;;1.71;67.66;97860.81;2066364;28;20230;-64
2022/03/21 03:41:59;;;;;;;23.98;13.77;;;;;;;1.72;67.52;97865.09;2068068;28;20205;-64
2022/03/21 03:43:01;;;;;;;25.95;13.85;;;;;;;1.71;67.81;97868.56;2070094;28;20205;-64
2022/03/21 03:44:03;;;;;;;27.30;15.18;;;;;;;1.70;67.74;97869.41;2069249;28;20209;-64
2022/03/21 03:45:05;;;;;;;24.17;14.05;;;;;;;1.60;67.76;97861.81;2068083;28;20190;-64
2022/03/21 03:46:06;;;;;;;23.88;13.15;;;;;;;1.58;67.81;97867.00;2069691;28;20225;-65
2022/03/21 03:47:08;;;;;;;32.83;14.45;;;;;;;1.45;68.37;97861.16;2069516;28;20206;-65
2022/03/21 03:48:10;;;;;;;25.52;14.00;;;;;;;1.34;68.50;97869.00;2070031;28;20816;-64
2022/03/21 03:49:12;;;;;;;27.10;13.52;;;;;;;1.36;68.95;97863.84;2069289;28;20206;-65
2022/03/21 03:50:13;;;;;;;35.50;15.20;;;;;;;1.54;68.54;97868.75;2068677;28;20556;-64
2022/03/21 03:51:15;;;;;;;30.63;13.63;;;;;;;1.59;68.02;97866.16;2068850;28;20209;-64
2022/03/21 03:52:17;;;;;;;26.15;14.93;;;;;;;1.38;68.76;97865.53;2068603;28;20206;-64
2022/03/21 03:53:18;;;;;;;25.63;14.68;;;;;;;1.28;69.18;97873.41;2068716;28;20887;-64
2022/03/21 03:54:20;;;;;;;27.33;16.02;;;;;;;1.31;69.36;97866.50;2071312;28;20675;-64
2022/03/21 03:55:21;;;;;;;25.88;14.98;;;;;;;1.38;68.82;97873.25;2067775;28;20202;-64
2022/03/21 03:56:23;;;;;;;24.08;14.02;;;;;;;1.36;69.11;97867.28;2067971;28;20529;-64
2022/03/21 03:57:24;;;;;;;25.00;13.93;;;;;;;1.41;69.22;97868.94;2069921;28;20197;-64
2022/03/21 03:58:25;;;;;;;25.58;14.65;;;;;;;1.38;69.30;97870.69;2070602;28;20318;-64
2022/03/21 03:59:27;;;;;;;29.75;15.00;;;;;;;1.40;69.18;97872.41;2068815;28;20199;-64
2022/03/21 04:00:28;;;;;;;26.63;13.20;;;;;;;1.37;69.27;97876.72;2069693;28;20229;-64
2022/03/21 04:01:30;;;;;;;24.67;15.25;;;;;;;1.35;69.18;97869.88;2068645;28;20201;-64
2022/03/21 04:03:44;;;;;;;25.83;14.50;;;;;;;1.30;69.53;97869.94;2068292;28;20289;-64
2022/03/21 04:03:54;;;;;;;28.10;14.77;;;;;;;1.25;69.80;97871.69;2069705;28;20202;-64
2022/03/21 04:04:55;;;;;;;28.33;15.68;;;;;;;1.26;69.56;97867.41;2068185;28;20202;-64
2022/03/21 04:05:56;;;;;;;30.23;15.95;;;;;;;1.26;69.27;97873.41;2068531;28;20247;-64
2022/03/21 04:06:58;;;;;;;28.38;14.93;;;;;;;1.16;69.75;97875.25;2068445;28;21102;-64
2022/03/21 04:07:59;;;;;;;26.98;14.77;;;;;;;0.96;70.30;97885.78;2067920;28;20206;-64
2022/03/21 04:09:01;;;;;;;30.52;15.95;;;;;;;0.99;70.50;97884.88;2068716;28;20641;-64
2022/03/21 04:10:02;;;;;;;25.15;14.30;;;;;;;1.07;70.13;97879.66;2070530;28;20205;-64
2022/03/21 04:11:04;;;;;;;28.45;15.02;;;;;;;1.05;70.14;97881.41;2064603;28;20222;-64
2022/03/21 04:12:06;;;;;;;33.42;15.98;;;;;;;1.00;70.27;97886.63;2070591;28;20198;-64
2022/03/21 04:13:07;;;;;;;27.52;16.25;;;;;;;1.02;70.09;97889.16;2069133;28;20538;-64
2022/03/21 04:14:09;;;;;;;26.40;13.88;;;;;;;0.98;70.34;97878.00;2068616;28;20194;-64
2022/03/21 04:15:15;;;;;;;29.88;15.30;;;;;;;0.99;70.32;97880.56;2069361;28;20236;-64
2022/03/21 04:16:16;;;;;;;26.92;15.10;;;;;;;0.98;70.43;97881.47;2067944;28;20209;-64
2022/03/21 04:17:18;;;;;;;27.42;15.00;;;;;;;1.10;70.19;97882.22;2071137;28;20234;-64
2022/03/21 04:18:20;;;;;;;27.33;14.00;;;;;;;1.11;69.90;97882.16;2068969;28;20194;-64
2022/03/21 04:19:30;;;;;;;24.50;13.90;;;;;;;0.91;70.72;97887.53;2070513;28;20193;-64
2022/03/21 04:20:33;;;;;;;31.15;15.63;;;;;;;1.03;70.44;97890.88;2069239;28;20739;-64
2022/03/21 04:21:34;;;;;;;22.30;13.73;;;;;;;1.11;69.84;97878.75;2067510;28;20194;-66
2022/03/21 04:22:36;;;;;;;32.22;14.80;;;;;;;1.06;70.11;97876.22;2069320;28;20190;-64
2022/03/21 04:23:37;;;;;;;23.70;12.82;;;;;;;1.08;70.13;97878.75;2069158;28;20193;-64
2022/03/21 04:24:39;;;;;;;28.20;16.13;;;;;;;1.25;69.84;97876.00;2069761;28;20198;-64
2022/03/21 04:25:40;;;;;;;30.38;15.55;;;;;;;1.26;69.35;97873.41;2069277;28;20228;-64
2022/03/21 04:26:42;;;;;;;27.92;15.63;;;;;;;1.17;69.87;97879.53;2069654;28;20224;-64
2022/03/21 04:27:43;;;;;;;21.20;13.13;;;;;;;1.03;70.25;97881.41;2067113;28;20822;-64
2022/03/21 04:28:44;;;;;;;25.85;15.23;;;;;;;1.01;70.58;97890.03;2068707;28;20205;-64
2022/03/21 04:29:46;;;;;;;26.83;14.60;;;;;;;0.87;71.01;97888.44;2069451;28;20198;-64
2022/03/21 04:30:48;;;;;;;26.13;14.43;;;;;;;0.81;71.13;97888.50;2067593;28;20237;-64
2022/03/21 04:31:50;;;;;;;30.05;14.15;;;;;;;0.69;71.51;97889.47;2069942;28;20606;-64
2022/03/21 04:32:51;;;;;;;26.73;15.02;;;;;;;0.69;71.85;97889.47;2068800;28;20202;-64
2022/03/21 04:33:53;;;;;;;28.33;14.75;;;;;;;0.64;71.72;97887.81;2068165;28;20211;-66
2022/03/21 04:34:54;;;;;;;26.58;13.82;;;;;;;0.73;71.32;97886.00;2067862;28;20821;-64
2022/03/21 04:35:55;;;;;;;22.88;14.00;;;;;;;0.82;71.22;97889.34;2067859;28;20233;-64
2022/03/21 04:36:57;;;;;;;23.88;13.13;;;;;;;0.73;71.51;97895.47;2067166;28;20203;-64
2022/03/21 04:37:59;;;;;;;28.80;15.13;;;;;;;0.64;71.32;97888.66;2071285;28;20205;-65
2022/03/21 04:39:01;;;;;;;28.35;15.20;;;;;;;0.58;71.83;97884.41;2068772;28;20209;-68
2022/03/21 04:40:03;;;;;;;25.48;13.30;;;;;;;0.60;71.27;97894.69;2067471;28;20217;-64
2022/03/21 04:41:06;;;;;;;25.10;14.43;;;;;;;0.70;71.24;97892.91;2069033;28;20246;-67
2022/03/21 04:42:07;;;;;;;25.88;14.65;;;;;;;0.71;71.11;97899.78;2068250;28;20194;-65
2022/03/21 04:43:09;;;;;;;29.58;14.77;;;;;;;0.75;71.22;97901.47;2067409;28;20206;-66
2022/03/21 04:44:11;;;;;;;20.17;12.10;;;;;;;0.69;71.37;97904.94;2068915;28;20614;-64
2022/03/21 04:45:12;;;;;;;28.13;14.38;;;;;;;0.69;71.41;97909.25;2069302;28;20217;-65
2022/03/21 04:46:17;;;;;;;30.38;15.25;;;;;;;0.69;71.63;97909.25;2068625;28;20205;-65
2022/03/21 04:47:20;;;;;;;28.83;14.88;;;;;;;0.62;71.68;97907.59;2069533;28;20799;-67
2022/03/21 04:48:22;;;;;;;40.15;14.65;;;;;;;0.79;71.44;97913.47;2069835;28;20748;-64
2022/03/21 04:49:23;;;;;;;25.58;15.52;;;;;;;0.78;71.86;97914.31;2068679;28;20237;-64
2022/03/21 04:50:25;;;;;;;28.52;14.88;;;;;;;0.74;71.63;97910.06;2067078;28;20205;-65
2022/03/21 04:51:26;;;;;;;32.45;14.73;;;;;;;0.70;72.05;97913.53;2068144;28;20209;-64
2022/03/21 04:52:28;;;;;;;41.67;14.82;;;;;;;0.74;71.67;97913.47;2068826;28;20204;-65
2022/03/21 04:53:30;;;;;;;28.85;13.98;;;;;;;0.76;71.70;97910.91;2067996;28;20210;-66